Ginga — JJ4054 — position and weather

sailwx.info

Track history (hours):
 
Tides and Currents Weather Stations Pressure Air Temp Water Temp Dewpoint Dewpoint Depression Visibility Wind Speed Wind Dir Waves Ship Positions

Ginga

Last reported at 2014-Nov-24 10:33 UTC. Time now 2014-Nov-24 22:47 UTC.
Position N 34°39' E 135°09'.

Length 28 m; draft 1.6 m.

Type: Other ship. MMSI: 431301704.

Date/timePositionNaut miles runAvg speedWind from/ knotsBaromVisibWave heightAir tempDewpointWater temp
2014-Nov-24 10:33N 34°39' E 135°09'7 6.7
2014-Nov-24 09:32N 34°36' E 135°02'1 1.2
2014-Nov-24 08:33N 34°38' E 135°02'6 3.2
2014-Nov-24 06:32N 34°39' E 135°09'2 0.1
2014-Nov-23 04:33N 34°37' E 135°09'2315.6
2014-Nov-23 03:04N 34°16' E 134°59'6 8.6
2014-Nov-23 02:24N 34°21' E 135°00'1315.1
2014-Nov-23 01:33N 34°30' E 135°11'1111.4
2014-Nov-23 00:33N 34°33' E 135°25'1 0.8
2014-Nov-22 23:31N 34°34' E 135°24'1515.4
2014-Nov-22 22:33N 34°36' E 135°06'2 1.2
2014-Nov-22 20:32N 34°38' E 135°03'2 2.0
2014-Nov-22 19:33N 34°36' E 135°04'4 4.3
2014-Nov-22 18:32N 34°35' E 135°09'4 4.5
2014-Nov-22 17:32N 34°39' E 135°09'0 0.0
2014-Nov-22 04:23N 34°39' E 135°09'2 1.8
2014-Nov-22 03:33N 34°40' E 135°11'9 9.3
2014-Nov-22 02:33N 34°35' E 135°20'3 2.5
2014-Nov-22 01:31N 34°33' E 135°23'9 9.0
2014-Nov-22 00:28N 34°29' E 135°12'19 8.7
2014-Nov-21 22:17N 34°14' E 134°58'1114.9
2014-Nov-21 21:33N 34°25' E 135°02'1515.5
2014-Nov-21 20:33N 34°39' E 135°10'1 0.0
2014-Nov-21 06:21N 34°39' E 135°09'8 9.7
2014-Nov-21 05:33N 34°37' E 135°00'1 1.2
2014-Nov-21 04:33N 34°38' E 135°02'6 0.3
2014-Nov-20 04:20N 34°39' E 135°09'910.4
2014-Nov-20 03:25N 34°37' E 134°58'2 0.3
2014-Nov-19 20:33N 34°38' E 135°01'4 4.0
2014-Nov-19 19:33N 34°36' E 135°04'5 5.4
2014-Nov-19 18:33N 34°39' E 135°09'0 0.0
2014-Nov-19 03:04N 34°39' E 135°09'611.6
2014-Nov-19 02:33N 34°34' E 135°05'7 7.0
2014-Nov-19 01:32N 34°36' E 134°56'1 1.3
2014-Nov-19 00:32N 34°36' E 134°58'6 5.7
2014-Nov-18 23:33N 34°36' E 135°04'5 5.2
2014-Nov-18 22:33N 34°39' E 135°09'3 0.1
2014-Nov-17 02:33N 34°36' E 135°08'8 5.6
2014-Nov-17 01:07N 34°37' E 134°58'611.0
2014-Nov-17 00:34N 34°35' E 135°05'3 2.6
2014-Nov-16 23:33N 34°38' E 135°03'4 0.9
2014-Nov-16 18:33N 34°38' E 134°58'6 6.2
2014-Nov-16 17:33N 34°35' E 135°05'5 5.4
2014-Nov-16 16:33N 34°39' E 135°09'5 0.3
2014-Nov-16 01:33N 34°37' E 135°04'1 1.5
2014-Nov-16 00:33N 34°35' E 135°05'3 2.7
2014-Nov-15 23:33N 34°38' E 135°03'0 0.0
2014-Nov-15 21:33N 34°38' E 135°03'2 1.6
2014-Nov-15 20:33N 34°36' E 135°04'6 5.3
2014-Nov-15 19:31N 34°39' E 135°09'  
Track history (hours):
 
Tides and Currents Weather Stations Pressure Air Temp Water Temp Dewpoint Dewpoint Depression Visibility Wind Speed Wind Dir Waves Ship Positions

Ginga

Last reported at 2014-Nov-24 10:33 UTC. Time now 2014-Nov-24 22:47 UTC.
Position N 34°39' E 135°09'.

Length 28 m; draft 1.6 m.

Type: Other ship. MMSI: 431301704.

Date/timePositionNaut miles runAvg speedWind from/ knotsBaromVisibWave heightAir tempDewpointWater temp
2014-Nov-24 10:33N 34°39' E 135°09'7 6.7
2014-Nov-24 09:32N 34°36' E 135°02'1 1.2
2014-Nov-24 08:33N 34°38' E 135°02'6 3.2
2014-Nov-24 06:32N 34°39' E 135°09'2 0.1
2014-Nov-23 04:33N 34°37' E 135°09'2315.6
2014-Nov-23 03:04N 34°16' E 134°59'6 8.6
2014-Nov-23 02:24N 34°21' E 135°00'1315.1
2014-Nov-23 01:33N 34°30' E 135°11'1111.4
2014-Nov-23 00:33N 34°33' E 135°25'1 0.8
2014-Nov-22 23:31N 34°34' E 135°24'1515.4
2014-Nov-22 22:33N 34°36' E 135°06'2 1.2
2014-Nov-22 20:32N 34°38' E 135°03'2 2.0
2014-Nov-22 19:33N 34°36' E 135°04'4 4.3
2014-Nov-22 18:32N 34°35' E 135°09'4 4.5
2014-Nov-22 17:32N 34°39' E 135°09'0 0.0
2014-Nov-22 04:23N 34°39' E 135°09'2 1.8
2014-Nov-22 03:33N 34°40' E 135°11'9 9.3
2014-Nov-22 02:33N 34°35' E 135°20'3 2.5
2014-Nov-22 01:31N 34°33' E 135°23'9 9.0
2014-Nov-22 00:28N 34°29' E 135°12'19 8.7
2014-Nov-21 22:17N 34°14' E 134°58'1114.9
2014-Nov-21 21:33N 34°25' E 135°02'1515.5
2014-Nov-21 20:33N 34°39' E 135°10'1 0.0
2014-Nov-21 06:21N 34°39' E 135°09'8 9.7
2014-Nov-21 05:33N 34°37' E 135°00'1 1.2
2014-Nov-21 04:33N 34°38' E 135°02'6 0.3
2014-Nov-20 04:20N 34°39' E 135°09'910.4
2014-Nov-20 03:25N 34°37' E 134°58'2 0.3
2014-Nov-19 20:33N 34°38' E 135°01'4 4.0
2014-Nov-19 19:33N 34°36' E 135°04'5 5.4
2014-Nov-19 18:33N 34°39' E 135°09'0 0.0
2014-Nov-19 03:04N 34°39' E 135°09'611.6
2014-Nov-19 02:33N 34°34' E 135°05'7 7.0
2014-Nov-19 01:32N 34°36' E 134°56'1 1.3
2014-Nov-19 00:32N 34°36' E 134°58'6 5.7
2014-Nov-18 23:33N 34°36' E 135°04'5 5.2
2014-Nov-18 22:33N 34°39' E 135°09'3 0.1
2014-Nov-17 02:33N 34°36' E 135°08'8 5.6
2014-Nov-17 01:07N 34°37' E 134°58'611.0
2014-Nov-17 00:34N 34°35' E 135°05'3 2.6
2014-Nov-16 23:33N 34°38' E 135°03'4 0.9
2014-Nov-16 18:33N 34°38' E 134°58'6 6.2
2014-Nov-16 17:33N 34°35' E 135°05'5 5.4
2014-Nov-16 16:33N 34°39' E 135°09'5 0.3
2014-Nov-16 01:33N 34°37' E 135°04'1 1.5
2014-Nov-16 00:33N 34°35' E 135°05'3 2.7
2014-Nov-15 23:33N 34°38' E 135°03'0 0.0
2014-Nov-15 21:33N 34°38' E 135°03'2 1.6
2014-Nov-15 20:33N 34°36' E 135°04'6 5.3
2014-Nov-15 19:31N 34°39' E 135°09'  

Dump ship's entire track history